sensor_id;sensor_type;location;lat;lon;timestamp;pressure;altitude;pressure_sealevel;temperature;humidity
72409;BME280;60402;48.082;11.628;2023-04-26T00:00:52;95235.03;;;5.74;100.00
72409;BME280;60402;48.082;11.628;2023-04-26T00:03:39;95258.66;;;5.76;100.00
72409;BME280;60402;48.082;11.628;2023-04-26T00:06:25;95257.44;;;5.77;100.00
72409;BME280;60402;48.082;11.628;2023-04-26T00:09:11;95248.19;;;5.80;100.00
72409;BME280;60402;48.082;11.628;2023-04-26T00:11:58;95246.34;;;5.67;100.00
72409;BME280;60402;48.082;11.628;2023-04-26T00:14:43;95251.13;;;5.70;100.00
72409;BME280;60402;48.082;11.628;2023-04-26T00:17:29;95256.09;;;5.89;100.00
72409;BME280;60402;48.082;11.628;2023-04-26T00:20:15;95244.38;;;5.63;100.00
72409;BME280;60402;48.082;11.628;2023-04-26T00:23:01;95235.19;;;5.59;100.00
72409;BME280;60402;48.082;11.628;2023-04-26T00:25:47;95219.28;;;5.53;100.00
72409;BME280;60402;48.082;11.628;2023-04-26T00:28:33;95247.44;;;5.76;100.00
72409;BME280;60402;48.082;11.628;2023-04-26T00:31:18;95236.34;;;5.66;100.00
72409;BME280;60402;48.082;11.628;2023-04-26T00:34:04;95230.41;;;5.60;100.00
72409;BME280;60402;48.082;11.628;2023-04-26T00:36:50;95249.50;;;5.69;100.00
72409;BME280;60402;48.082;11.628;2023-04-26T00:39:35;95248.38;;;5.62;100.00
72409;BME280;60402;48.082;11.628;2023-04-26T00:42:21;95245.84;;;5.75;100.00
72409;BME280;60402;48.082;11.628;2023-04-26T00:45:07;95244.69;;;5.69;100.00
72409;BME280;60402;48.082;11.628;2023-04-26T00:47:53;95209.06;;;5.35;100.00
72409;BME280;60402;48.082;11.628;2023-04-26T00:50:38;95243.28;;;5.54;100.00
72409;BME280;60402;48.082;11.628;2023-04-26T00:53:25;95252.38;;;5.65;100.00
72409;BME280;60402;48.082;11.628;2023-04-26T00:56:11;95231.69;;;5.52;100.00
72409;BME280;60402;48.082;11.628;2023-04-26T00:58:57;95254.34;;;5.64;100.00
72409;BME280;60402;48.082;11.628;2023-04-26T01:01:43;95234.56;;;5.45;100.00
72409;BME280;60402;48.082;11.628;2023-04-26T01:04:28;95242.59;;;5.46;100.00
72409;BME280;60402;48.082;11.628;2023-04-26T01:07:14;95261.69;;;5.55;100.00
72409;BME280;60402;48.082;11.628;2023-04-26T01:10:00;95248.72;;;5.30;100.00
72409;BME280;60402;48.082;11.628;2023-04-26T01:12:46;95259.00;;;5.44;100.00
72409;BME280;60402;48.082;11.628;2023-04-26T01:15:32;95256.06;;;5.55;100.00
72409;BME280;60402;48.082;11.628;2023-04-26T01:18:20;95261.81;;;5.44;100.00
72409;BME280;60402;48.082;11.628;2023-04-26T01:21:05;95256.16;;;5.48;100.00
72409;BME280;60402;48.082;11.628;2023-04-26T01:23:51;95256.22;;;5.41;100.00
72409;BME280;60402;48.082;11.628;2023-04-26T01:26:38;95262.88;;;5.57;100.00
72409;BME280;60402;48.082;11.628;2023-04-26T01:29:30;95269.22;;;5.61;100.00
72409;BME280;60402;48.082;11.628;2023-04-26T01:32:16;95261.97;;;5.64;100.00
72409;BME280;60402;48.082;11.628;2023-04-26T01:35:02;95265.50;;;5.72;100.00
72409;BME280;60402;48.082;11.628;2023-04-26T01:37:47;95244.69;;;5.35;100.00
72409;BME280;60402;48.082;11.628;2023-04-26T01:40:33;95270.97;;;5.48;100.00
72409;BME280;60402;48.082;11.628;2023-04-26T01:43:19;95279.47;;;5.41;100.00
72409;BME280;60402;48.082;11.628;2023-04-26T01:46:05;95267.03;;;5.42;100.00
72409;BME280;60402;48.082;11.628;2023-04-26T01:48:51;95279.06;;;5.39;100.00
72409;BME280;60402;48.082;11.628;2023-04-26T01:51:37;95266.41;;;5.27;100.00
72409;BME280;60402;48.082;11.628;2023-04-26T01:54:23;95270.38;;;5.26;100.00
72409;BME280;60402;48.082;11.628;2023-04-26T01:57:08;95278.72;;;5.33;100.00
72409;BME280;60402;48.082;11.628;2023-04-26T01:59:54;95276.78;;;5.27;100.00
72409;BME280;60402;48.082;11.628;2023-04-26T02:02:41;95254.81;;;5.22;100.00
72409;BME280;60402;48.082;11.628;2023-04-26T02:05:26;95284.34;;;5.33;100.00
72409;BME280;60402;48.082;11.628;2023-04-26T02:08:12;95288.41;;;5.25;100.00
72409;BME280;60402;48.082;11.628;2023-04-26T02:10:58;95289.16;;;5.33;100.00
72409;BME280;60402;48.082;11.628;2023-04-26T02:13:44;95292.00;;;5.26;100.00
72409;BME280;60402;48.082;11.628;2023-04-26T02:16:29;95293.66;;;5.20;100.00
72409;BME280;60402;48.082;11.628;2023-04-26T02:19:15;95291.25;;;5.22;100.00
72409;BME280;60402;48.082;11.628;2023-04-26T02:22:03;95283.72;;;5.15;100.00
72409;BME280;60402;48.082;11.628;2023-04-26T02:24:51;95286.06;;;5.20;100.00
72409;BME280;60402;48.082;11.628;2023-04-26T02:27:37;95251.38;;;5.07;100.00
72409;BME280;60402;48.082;11.628;2023-04-26T02:30:22;95265.91;;;4.95;100.00
72409;BME280;60402;48.082;11.628;2023-04-26T02:33:08;95264.56;;;5.06;100.00
72409;BME280;60402;48.082;11.628;2023-04-26T02:35:54;95286.97;;;5.06;100.00
72409;BME280;60402;48.082;11.628;2023-04-26T02:38:40;95277.34;;;5.11;100.00
72409;BME280;60402;48.082;11.628;2023-04-26T02:41:26;95233.69;;;4.72;100.00
72409;BME280;60402;48.082;11.628;2023-04-26T02:44:11;95261.56;;;4.86;100.00
72409;BME280;60402;48.082;11.628;2023-04-26T02:46:57;95282.28;;;4.96;100.00
72409;BME280;60402;48.082;11.628;2023-04-26T02:49:43;95253.94;;;4.87;100.00
72409;BME280;60402;48.082;11.628;2023-04-26T02:52:28;95271.88;;;4.93;100.00
72409;BME280;60402;48.082;11.628;2023-04-26T02:55:14;95270.72;;;4.91;100.00
72409;BME280;60402;48.082;11.628;2023-04-26T02:58:00;95265.50;;;4.93;100.00
72409;BME280;60402;48.082;11.628;2023-04-26T03:00:45;95260.25;;;4.98;100.00
72409;BME280;60402;48.082;11.628;2023-04-26T03:03:32;95249.59;;;4.82;100.00
72409;BME280;60402;48.082;11.628;2023-04-26T03:06:18;95262.38;;;4.83;100.00
72409;BME280;60402;48.082;11.628;2023-04-26T03:09:03;95263.03;;;4.98;100.00
72409;BME280;60402;48.082;11.628;2023-04-26T03:11:51;95261.47;;;4.94;100.00
72409;BME280;60402;48.082;11.628;2023-04-26T03:14:36;95261.91;;;4.92;100.00
72409;BME280;60402;48.082;11.628;2023-04-26T03:17:22;95269.53;;;4.88;100.00
72409;BME280;60402;48.082;11.628;2023-04-26T03:20:08;95277.41;;;5.04;100.00
72409;BME280;60402;48.082;11.628;2023-04-26T03:22:55;95264.72;;;4.88;100.00
72409;BME280;60402;48.082;11.628;2023-04-26T03:25:40;95256.09;;;4.69;100.00
72409;BME280;60402;48.082;11.628;2023-04-26T03:28:26;95278.38;;;4.83;100.00
72409;BME280;60402;48.082;11.628;2023-04-26T03:31:12;95265.25;;;4.73;100.00
72409;BME280;60402;48.082;11.628;2023-04-26T03:33:57;95282.03;;;4.80;100.00
72409;BME280;60402;48.082;11.628;2023-04-26T03:36:43;95291.13;;;4.91;100.00
72409;BME280;60402;48.082;11.628;2023-04-26T03:39:29;95275.59;;;4.79;100.00
72409;BME280;60402;48.082;11.628;2023-04-26T03:42:14;95278.44;;;4.76;100.00
72409;BME280;60402;48.082;11.628;2023-04-26T03:45:00;95285.59;;;4.80;100.00
72409;BME280;60402;48.082;11.628;2023-04-26T03:47:46;95241.41;;;4.57;100.00
72409;BME280;60402;48.082;11.628;2023-04-26T03:50:31;95292.72;;;4.88;100.00
72409;BME280;60402;48.082;11.628;2023-04-26T03:53:17;95260.91;;;4.68;100.00
72409;BME280;60402;48.082;11.628;2023-04-26T03:56:03;95285.53;;;4.87;100.00
72409;BME280;60402;48.082;11.628;2023-04-26T03:58:49;95278.78;;;4.85;100.00
72409;BME280;60402;48.082;11.628;2023-04-26T04:01:34;95292.38;;;4.83;100.00
72409;BME280;60402;48.082;11.628;2023-04-26T04:04:21;95295.19;;;4.83;100.00
72409;BME280;60402;48.082;11.628;2023-04-26T04:07:06;95292.38;;;4.83;100.00
72409;BME280;60402;48.082;11.628;2023-04-26T04:09:52;95298.75;;;4.83;100.00
72409;BME280;60402;48.082;11.628;2023-04-26T04:12:37;95298.41;;;4.81;100.00
72409;BME280;60402;48.082;11.628;2023-04-26T04:15:23;95285.59;;;4.80;100.00
72409;BME280;60402;48.082;11.628;2023-04-26T04:18:09;95284.41;;;4.78;100.00
72409;BME280;60402;48.082;11.628;2023-04-26T04:20:54;95304.34;;;4.87;100.00
72409;BME280;60402;48.082;11.628;2023-04-26T04:23:40;95299.16;;;4.85;100.00
72409;BME280;60402;48.082;11.628;2023-04-26T04:26:26;95288.41;;;4.80;100.00
72409;BME280;60402;48.082;11.628;2023-04-26T04:29:15;95304.38;;;4.83;100.00
72409;BME280;60402;48.082;11.628;2023-04-26T04:32:01;95286.06;;;4.72;100.00
72409;BME280;60402;48.082;11.628;2023-04-26T04:34:46;95311.19;;;4.82;100.00
72409;BME280;60402;48.082;11.628;2023-04-26T04:37:32;95311.53;;;4.88;100.00
72409;BME280;60402;48.082;11.628;2023-04-26T04:40:18;95308.38;;;4.82;100.00
72409;BME280;60402;48.082;11.628;2023-04-26T04:43:03;95311.59;;;4.81;100.00
72409;BME280;60402;48.082;11.628;2023-04-26T04:45:49;95284.09;;;4.65;100.00
72409;BME280;60402;48.082;11.628;2023-04-26T04:48:34;95321.22;;;4.80;100.00
72409;BME280;60402;48.082;11.628;2023-04-26T04:51:23;95316.78;;;4.82;100.00
72409;BME280;60402;48.082;11.628;2023-04-26T04:54:12;95325.84;;;4.97;100.00
72409;BME280;60402;48.082;11.628;2023-04-26T04:56:58;95316.75;;;4.86;100.00
72409;BME280;60402;48.082;11.628;2023-04-26T04:59:45;95325.50;;;4.95;100.00
72409;BME280;60402;48.082;11.628;2023-04-26T05:02:31;95325.50;;;4.95;100.00
72409;BME280;60402;48.082;11.628;2023-04-26T05:05:16;95318.38;;;4.83;100.00
72409;BME280;60402;48.082;11.628;2023-04-26T05:08:02;95341.50;;;4.95;100.00
72409;BME280;60402;48.082;11.628;2023-04-26T05:10:48;95342.66;;;5.01;100.00
72409;BME280;60402;48.082;11.628;2023-04-26T05:13:33;95324.66;;;4.98;100.00
72409;BME280;60402;48.082;11.628;2023-04-26T05:16:19;95330.56;;;5.07;100.00
72409;BME280;60402;48.082;11.628;2023-04-26T05:19:05;95331.78;;;5.10;100.00
72409;BME280;60402;48.082;11.628;2023-04-26T05:21:51;95328.97;;;5.10;100.00
72409;BME280;60402;48.082;11.628;2023-04-26T05:24:37;95338.84;;;5.22;100.00
72409;BME280;60402;48.082;11.628;2023-04-26T05:27:23;95357.22;;;5.30;100.00
72409;BME280;60402;48.082;11.628;2023-04-26T05:30:09;95337.94;;;5.35;100.00
72409;BME280;60402;48.082;11.628;2023-04-26T05:32:55;95344.28;;;5.43;100.00
72409;BME280;60402;48.082;11.628;2023-04-26T05:35:41;95323.63;;;5.26;100.00
72409;BME280;60402;48.082;11.628;2023-04-26T05:38:27;95346.28;;;5.43;100.00
72409;BME280;60402;48.082;11.628;2023-04-26T05:41:13;95362.50;;;5.66;100.00
72409;BME280;60402;48.082;11.628;2023-04-26T05:43:59;95359.84;;;5.51;100.00
72409;BME280;60402;48.082;11.628;2023-04-26T05:46:45;95359.84;;;5.51;100.00
72409;BME280;60402;48.082;11.628;2023-04-26T05:49:30;95332.75;;;5.34;100.00
72409;BME280;60402;48.082;11.628;2023-04-26T05:52:16;95316.78;;;5.31;100.00
72409;BME280;60402;48.082;11.628;2023-04-26T05:55:02;95373.41;;;5.56;100.00
72409;BME280;60402;48.082;11.628;2023-04-26T05:57:48;95355.84;;;5.49;100.00
72409;BME280;60402;48.082;11.628;2023-04-26T06:00:35;95343.91;;;5.41;100.00
72409;BME280;60402;48.082;11.628;2023-04-26T06:03:21;95346.72;;;5.41;100.00
72409;BME280;60402;48.082;11.628;2023-04-26T06:06:07;95371.38;;;5.57;100.00
72409;BME280;60402;48.082;11.628;2023-04-26T06:08:53;95364.25;;;5.49;100.00
72409;BME280;60402;48.082;11.628;2023-04-26T06:11:38;95380.50;;;5.64;100.00
72409;BME280;60402;48.082;11.628;2023-04-26T06:14:24;95374.53;;;5.62;100.00
72409;BME280;60402;48.082;11.628;2023-04-26T06:17:10;95386.94;;;5.65;100.00
72409;BME280;60402;48.082;11.628;2023-04-26T06:19:55;95396.16;;;5.62;100.00
72409;BME280;60402;48.082;11.628;2023-04-26T06:22:41;95391.63;;;5.75;100.00
72409;BME280;60402;48.082;11.628;2023-04-26T06:25:27;95356.94;;;5.58;100.00
72409;BME280;60402;48.082;11.628;2023-04-26T06:28:13;95388.69;;;5.89;100.00
72409;BME280;60402;48.082;11.628;2023-04-26T06:30:59;95393.34;;;5.66;100.00
72409;BME280;60402;48.082;11.628;2023-04-26T06:33:44;95371.63;;;5.73;100.00
72409;BME280;60402;48.082;11.628;2023-04-26T06:36:30;95380.31;;;5.86;100.00
72409;BME280;60402;48.082;11.628;2023-04-26T06:39:17;95399.00;;;6.03;100.00
72409;BME280;60402;48.082;11.628;2023-04-26T06:42:03;95403.38;;;6.04;100.00
72409;BME280;60402;48.082;11.628;2023-04-26T06:44:49;95396.78;;;5.84;100.00
72409;BME280;60402;48.082;11.628;2023-04-26T06:47:35;95388.00;;;5.78;100.00
72409;BME280;60402;48.082;11.628;2023-04-26T06:50:20;95385.56;;;5.84;100.00
72409;BME280;60402;48.082;11.628;2023-04-26T06:53:06;95367.22;;;5.72;100.00
72409;BME280;60402;48.082;11.628;2023-04-26T06:55:52;95378.31;;;5.83;100.00
72409;BME280;60402;48.082;11.628;2023-04-26T06:58:38;95399.75;;;6.42;100.00
72409;BME280;60402;48.082;11.628;2023-04-26T07:01:24;95404.38;;;6.59;100.00
72409;BME280;60402;48.082;11.628;2023-04-26T07:04:10;95372.53;;;6.96;100.00
72409;BME280;60402;48.082;11.628;2023-04-26T07:06:56;95384.25;;;7.18;100.00
72409;BME280;60402;48.082;11.628;2023-04-26T07:09:43;95400.00;;;6.85;100.00
72409;BME280;60402;48.082;11.628;2023-04-26T07:12:28;95402.44;;;6.83;100.00
72409;BME280;60402;48.082;11.628;2023-04-26T07:15:14;95398.31;;;6.60;100.00
72409;BME280;60402;48.082;11.628;2023-04-26T07:17:59;95380.84;;;6.76;100.00
72409;BME280;60402;48.082;11.628;2023-04-26T07:20:45;95387.81;;;6.95;100.00
72409;BME280;60402;48.082;11.628;2023-04-26T07:23:31;95392.44;;;7.36;100.00
72409;BME280;60402;48.082;11.628;2023-04-26T07:26:17;95394.31;;;7.42;100.00
72409;BME280;60402;48.082;11.628;2023-04-26T07:29:02;95396.50;;;8.25;98.68
72409;BME280;60402;48.082;11.628;2023-04-26T07:31:48;95377.31;;;8.60;95.01
72409;BME280;60402;48.082;11.628;2023-04-26T07:34:34;95372.91;;;8.59;94.43
72409;BME280;60402;48.082;11.628;2023-04-26T07:37:19;95363.03;;;8.70;94.97
72409;BME280;60402;48.082;11.628;2023-04-26T07:40:05;95379.03;;;8.74;94.20
72409;BME280;60402;48.082;11.628;2023-04-26T07:42:53;95395.41;;;8.99;92.16
72409;BME280;60402;48.082;11.628;2023-04-26T07:45:39;95385.91;;;10.81;90.49
72409;BME280;60402;48.082;11.628;2023-04-26T07:48:24;95365.06;;;11.68;85.60
72409;BME280;60402;48.082;11.628;2023-04-26T07:51:11;95370.84;;;11.39;74.34
72409;BME280;60402;48.082;11.628;2023-04-26T07:53:57;95390.56;;;12.85;73.15
72409;BME280;60402;48.082;11.628;2023-04-26T07:56:43;95367.06;;;13.68;67.93
72409;BME280;60402;48.082;11.628;2023-04-26T07:59:28;95379.59;;;16.93;56.22
72409;BME280;60402;48.082;11.628;2023-04-26T08:02:14;95385.41;;;16.98;54.01
72409;BME280;60402;48.082;11.628;2023-04-26T08:05:01;95358.34;;;16.70;51.34
72409;BME280;60402;48.082;11.628;2023-04-26T08:07:46;95367.53;;;16.74;52.31
72409;BME280;60402;48.082;11.628;2023-04-26T08:10:32;95378.91;;;18.01;47.16
72409;BME280;60402;48.082;11.628;2023-04-26T08:13:18;95399.75;;;16.17;52.89
72409;BME280;60402;48.082;11.628;2023-04-26T08:16:04;95374.19;;;16.95;50.08
72409;BME280;60402;48.082;11.628;2023-04-26T08:18:50;95393.63;;;16.09;52.47
72409;BME280;60402;48.082;11.628;2023-04-26T08:21:36;95380.50;;;14.91;55.81
72409;BME280;60402;48.082;11.628;2023-04-26T08:24:22;95384.03;;;13.99;58.33
72409;BME280;60402;48.082;11.628;2023-04-26T08:27:07;95380.06;;;13.78;60.63
72409;BME280;60402;48.082;11.628;2023-04-26T08:29:53;95395.13;;;14.16;61.26
72409;BME280;60402;48.082;11.628;2023-04-26T08:32:39;95396.22;;;15.47;55.07
72409;BME280;60402;48.082;11.628;2023-04-26T08:35:25;95388.03;;;17.55;50.17
72409;BME280;60402;48.082;11.628;2023-04-26T08:38:10;95390.59;;;15.19;52.39
72409;BME280;60402;48.082;11.628;2023-04-26T08:40:58;95361.56;;;14.69;54.65
72409;BME280;60402;48.082;11.628;2023-04-26T08:43:46;95377.31;;;15.77;52.88
72409;BME280;60402;48.082;11.628;2023-04-26T08:46:36;95381.63;;;15.72;52.77
72409;BME280;60402;48.082;11.628;2023-04-26T08:49:41;95391.53;;;14.33;56.16
72409;BME280;60402;48.082;11.628;2023-04-26T08:52:29;95394.38;;;14.33;53.04
72409;BME280;60402;48.082;11.628;2023-04-26T08:55:17;95379.69;;;14.44;56.47
72409;BME280;60402;48.082;11.628;2023-04-26T08:58:03;95367.38;;;15.12;55.09
72409;BME280;60402;48.082;11.628;2023-04-26T09:00:50;95388.69;;;15.25;52.81
72409;BME280;60402;48.082;11.628;2023-04-26T09:03:36;95358.56;;;14.82;54.82
72409;BME280;60402;48.082;11.628;2023-04-26T09:06:22;95380.94;;;15.26;53.52
72409;BME280;60402;48.082;11.628;2023-04-26T09:09:09;95386.19;;;14.63;54.79
72409;BME280;60402;48.082;11.628;2023-04-26T09:11:59;95384.13;;;13.37;58.75
72409;BME280;60402;48.082;11.628;2023-04-26T09:14:46;95384.22;;;14.05;56.27
72409;BME280;60402;48.082;11.628;2023-04-26T09:17:34;95383.72;;;13.88;58.40
72409;BME280;60402;48.082;11.628;2023-04-26T09:20:25;95379.25;;;13.38;58.31
72409;BME280;60402;48.082;11.628;2023-04-26T09:23:12;95370.06;;;13.12;60.25
72409;BME280;60402;48.082;11.628;2023-04-26T09:26:19;95381.22;;;12.40;61.91
72409;BME280;60402;48.082;11.628;2023-04-26T09:31:55;95359.50;;;11.90;64.83
72409;BME280;60402;48.082;11.628;2023-04-26T09:34:45;95378.88;;;11.91;64.31
72409;BME280;60402;48.082;11.628;2023-04-26T09:37:31;95363.13;;;11.52;65.02
72409;BME280;60402;48.082;11.628;2023-04-26T09:40:18;95380.56;;;11.50;65.21
72409;BME280;60402;48.082;11.628;2023-04-26T09:43:07;95379.66;;;11.28;66.03
72409;BME280;60402;48.082;11.628;2023-04-26T09:45:53;95377.47;;;10.94;67.86
72409;BME280;60402;48.082;11.628;2023-04-26T09:48:39;95374.38;;;10.75;69.08
72409;BME280;60402;48.082;11.628;2023-04-26T09:51:25;95362.59;;;10.64;68.87
72409;BME280;60402;48.082;11.628;2023-04-26T09:54:11;95378.91;;;10.44;72.52
72409;BME280;60402;48.082;11.628;2023-04-26T09:56:59;95375.63;;;10.16;73.37
72409;BME280;60402;48.082;11.628;2023-04-26T09:59:47;95367.06;;;10.49;73.31
72409;BME280;60402;48.082;11.628;2023-04-26T10:02:33;95339.44;;;10.69;70.06
72409;BME280;60402;48.082;11.628;2023-04-26T10:05:20;95366.00;;;11.39;68.43
72409;BME280;60402;48.082;11.628;2023-04-26T10:08:06;95373.09;;;11.69;66.41
72409;BME280;60402;48.082;11.628;2023-04-26T10:10:53;95365.75;;;11.46;66.74
72409;BME280;60402;48.082;11.628;2023-04-26T10:13:40;95356.81;;;11.48;66.81
72409;BME280;60402;48.082;11.628;2023-04-26T10:16:27;95363.13;;;11.52;67.03
72409;BME280;60402;48.082;11.628;2023-04-26T10:19:13;95378.97;;;11.24;68.66
72409;BME280;60402;48.082;11.628;2023-04-26T10:22:03;95382.88;;;10.75;71.61
72409;BME280;60402;48.082;11.628;2023-04-26T10:24:50;95373.41;;;10.82;71.88
72409;BME280;60402;48.082;11.628;2023-04-26T10:30:27;95343.47;;;10.56;71.63
72409;BME280;60402;48.082;11.628;2023-04-26T10:33:13;95362.22;;;11.04;70.79
72409;BME280;60402;48.082;11.628;2023-04-26T10:36:02;95367.34;;;11.35;71.97
72409;BME280;60402;48.082;11.628;2023-04-26T10:39:17;95361.56;;;11.51;71.39
72409;BME280;60402;48.082;11.628;2023-04-26T10:42:27;95354.31;;;11.63;67.50
72409;BME280;60402;48.082;11.628;2023-04-26T10:45:25;95346.72;;;11.47;66.73
72409;BME280;60402;48.082;11.628;2023-04-26T10:48:22;95355.78;;;11.42;63.11
72409;BME280;60402;48.082;11.628;2023-04-26T10:51:08;95336.66;;;11.59;63.99
72409;BME280;60402;48.082;11.628;2023-04-26T10:53:57;95335.59;;;11.78;64.46
72409;BME280;60402;48.082;11.628;2023-04-26T10:59:31;95332.03;;;12.12;64.21
72409;BME280;60402;48.082;11.628;2023-04-26T11:02:43;95333.22;;;11.89;65.00
72409;BME280;60402;48.082;11.628;2023-04-26T11:05:51;95332.13;;;11.61;62.92
72409;BME280;60402;48.082;11.628;2023-04-26T11:08:40;95315.00;;;11.90;61.20
72409;BME280;60402;48.082;11.628;2023-04-26T11:11:26;95308.78;;;11.83;64.16
72409;BME280;60402;48.082;11.628;2023-04-26T11:14:15;95290.25;;;12.03;60.01
72409;BME280;60402;48.082;11.628;2023-04-26T11:17:08;95282.59;;;11.78;60.49
72409;BME280;60402;48.082;11.628;2023-04-26T11:19:54;95294.84;;;11.88;60.44
72409;BME280;60402;48.082;11.628;2023-04-26T11:22:39;95277.63;;;11.22;58.54
72409;BME280;60402;48.082;11.628;2023-04-26T11:25:27;95283.78;;;12.03;58.39
72409;BME280;60402;48.082;11.628;2023-04-26T11:28:12;95253.50;;;12.13;59.43
72409;BME280;60402;48.082;11.628;2023-04-26T11:30:59;95270.75;;;12.27;59.17
72409;BME280;60402;48.082;11.628;2023-04-26T11:33:45;95287.63;;;12.31;58.87
72409;BME280;60402;48.082;11.628;2023-04-26T11:36:31;95268.22;;;12.42;58.25
72409;BME280;60402;48.082;11.628;2023-04-26T11:39:18;95275.47;;;12.43;56.91
72409;BME280;60402;48.082;11.628;2023-04-26T11:42:11;95287.31;;;12.51;55.98
72409;BME280;60402;48.082;11.628;2023-04-26T11:44:57;95275.47;;;12.43;56.65
72409;BME280;60402;48.082;11.628;2023-04-26T11:47:44;95289.81;;;12.71;52.40
72409;BME280;60402;48.082;11.628;2023-04-26T11:50:32;95284.66;;;12.78;54.42
72409;BME280;60402;48.082;11.628;2023-04-26T11:53:18;95277.41;;;12.77;54.54
72409;BME280;60402;48.082;11.628;2023-04-26T11:56:12;95276.19;;;12.88;52.73
72409;BME280;60402;48.082;11.628;2023-04-26T11:58:59;95299.22;;;12.90;54.25
72409;BME280;60402;48.082;11.628;2023-04-26T12:01:49;95290.47;;;13.06;54.47
72409;BME280;60402;48.082;11.628;2023-04-26T12:04:36;95283.25;;;13.14;55.23
72409;BME280;60402;48.082;11.628;2023-04-26T12:07:24;95291.94;;;13.51;54.93
72409;BME280;60402;48.082;11.628;2023-04-26T12:10:17;95284.16;;;13.33;55.91
72409;BME280;60402;48.082;11.628;2023-04-26T12:13:03;95285.69;;;12.94;55.62
72409;BME280;60402;48.082;11.628;2023-04-26T12:15:49;95280.13;;;12.59;55.29
72409;BME280;60402;48.082;11.628;2023-04-26T12:18:36;95295.53;;;12.36;53.73
72409;BME280;60402;48.082;11.628;2023-04-26T12:21:22;95295.75;;;11.85;54.13
72409;BME280;60402;48.082;11.628;2023-04-26T12:24:22;95253.72;;;11.36;56.98
72409;BME280;60402;48.082;11.628;2023-04-26T12:27:19;95285.13;;;11.76;57.19
72409;BME280;60402;48.082;11.628;2023-04-26T12:30:05;95288.56;;;11.59;55.37
72409;BME280;60402;48.082;11.628;2023-04-26T12:32:52;95298.75;;;12.03;56.12
72409;BME280;60402;48.082;11.628;2023-04-26T12:35:38;95281.19;;;12.31;55.81
72409;BME280;60402;48.082;11.628;2023-04-26T12:38:24;95291.34;;;12.41;57.25
72409;BME280;60402;48.082;11.628;2023-04-26T12:41:10;95276.25;;;12.44;55.44
72409;BME280;60402;48.082;11.628;2023-04-26T12:43:56;95281.78;;;12.47;54.25
72409;BME280;60402;48.082;11.628;2023-04-26T12:46:42;95282.94;;;12.37;54.24
72409;BME280;60402;48.082;11.628;2023-04-26T12:49:27;95288.44;;;12.32;57.32
72409;BME280;60402;48.082;11.628;2023-04-26T12:52:14;95276.63;;;12.11;55.05
72409;BME280;60402;48.082;11.628;2023-04-26T12:55:00;95276.56;;;12.02;54.36
72409;BME280;60402;48.082;11.628;2023-04-26T12:57:46;95291.34;;;12.19;54.48
72409;BME280;60402;48.082;11.628;2023-04-26T13:00:32;95263.41;;;12.30;55.48
72409;BME280;60402;48.082;11.628;2023-04-26T13:03:17;95275.81;;;12.76;53.67
72409;BME280;60402;48.082;11.628;2023-04-26T13:06:03;95240.66;;;13.05;54.14
72409;BME280;60402;48.082;11.628;2023-04-26T13:08:49;95261.59;;;13.29;53.02
72409;BME280;60402;48.082;11.628;2023-04-26T13:11:35;95263.06;;;13.12;51.32
72409;BME280;60402;48.082;11.628;2023-04-26T13:14:20;95270.09;;;13.29;51.62
72409;BME280;60402;48.082;11.628;2023-04-26T13:17:07;95234.22;;;12.42;51.72
72409;BME280;60402;48.082;11.628;2023-04-26T13:19:53;95264.84;;;12.35;53.92
72409;BME280;60402;48.082;11.628;2023-04-26T13:22:39;95243.56;;;12.52;54.56
72409;BME280;60402;48.082;11.628;2023-04-26T13:25:26;95245.84;;;12.66;53.86
72409;BME280;60402;48.082;11.628;2023-04-26T13:28:12;95245.59;;;12.51;56.11
72409;BME280;60402;48.082;11.628;2023-04-26T13:30:58;95261.78;;;12.73;53.90
72409;BME280;60402;48.082;11.628;2023-04-26T13:33:44;95264.94;;;12.75;55.10
72409;BME280;60402;48.082;11.628;2023-04-26T13:36:31;95262.34;;;12.90;53.30
72409;BME280;60402;48.082;11.628;2023-04-26T13:39:17;95269.91;;;12.93;55.07
72409;BME280;60402;48.082;11.628;2023-04-26T13:42:03;95238.91;;;12.67;54.62
72409;BME280;60402;48.082;11.628;2023-04-26T13:44:50;95250.44;;;12.73;53.94
72409;BME280;60402;48.082;11.628;2023-04-26T13:47:37;95251.06;;;12.99;53.21
72409;BME280;60402;48.082;11.628;2023-04-26T13:50:22;95244.78;;;12.51;52.78
72409;BME280;60402;48.082;11.628;2023-04-26T13:53:08;95223.81;;;12.70;51.47
72409;BME280;60402;48.082;11.628;2023-04-26T13:55:54;95227.22;;;12.65;55.55
72409;BME280;60402;48.082;11.628;2023-04-26T13:58:41;95214.31;;;12.95;53.41
72409;BME280;60402;48.082;11.628;2023-04-26T14:01:27;95242.94;;;13.19;52.80
72409;BME280;60402;48.082;11.628;2023-04-26T14:04:12;95233.72;;;13.37;51.67
72409;BME280;60402;48.082;11.628;2023-04-26T14:06:58;95219.88;;;13.17;52.09
72409;BME280;60402;48.082;11.628;2023-04-26T14:09:44;95222.34;;;13.28;51.85
72409;BME280;60402;48.082;11.628;2023-04-26T14:12:30;95213.69;;;13.41;52.48
72409;BME280;60402;48.082;11.628;2023-04-26T14:15:16;95217.81;;;13.58;53.33
72409;BME280;60402;48.082;11.628;2023-04-26T14:18:01;95226.34;;;13.67;50.13
72409;BME280;60402;48.082;11.628;2023-04-26T14:20:47;95205.97;;;13.41;50.75
72409;BME280;60402;48.082;11.628;2023-04-26T14:23:33;95237.84;;;13.64;49.59
72409;BME280;60402;48.082;11.628;2023-04-26T14:26:18;95233.88;;;13.43;52.23
72409;BME280;60402;48.082;11.628;2023-04-26T14:29:04;95214.00;;;13.02;52.70
72409;BME280;60402;48.082;11.628;2023-04-26T14:31:50;95220.63;;;13.40;51.60
72409;BME280;60402;48.082;11.628;2023-04-26T14:34:36;95181.25;;;13.01;50.45
72409;BME280;60402;48.082;11.628;2023-04-26T14:37:23;95220.44;;;13.25;50.83
72409;BME280;60402;48.082;11.628;2023-04-26T14:40:10;95223.19;;;13.16;51.40